LIPALIPQ

Guest
Details From LIPA - Aviano Ab
To LIPQ - Trieste Ronchi Dei Legionari
Flight Number -
Tags Generated
Created
Modified
Stats Distance 38 nm / 70 km
Max Altitude 0 ft / 0 m
Waypoints 2
Social Downloads 0
Likes 0
Share VATSIM

Download

Looking for another format? Having issues loading an existing format? Contact us
Advertisement - Login to hide

Notes

Generated

Route

LIPA LIPQ

ID Type Via Altitude Latitude Longitude Leg Dist Tot Dist Heading (true) Name
O LIPA APT - 0 ft / 0 m 46.02333˚ 12.58389˚ - 0 nm - -
O LIPQ APT - 0 ft / 0 m 45.82797˚ 13.44736˚ 37 nm 37 nm 108° / 108° -

Altitude Profile

Advertisement - Login to hide

LIPA

Details ICAO LIPA (AVB)
Name AVIANO AB
Region Italy
Timezone Europe/Rome (UTC+1.0)
Stats Elevation 410 ft / 125 m (AMSL)
Location 46.031111° 12.596389°
Runways 1
Magnetic Variation 3.255° E

METAR

LIPA 150655Z 36008KT 9999 -RA FEW030 SCT035 BKN040 07/06 Q0998 RMK OVC VIS MIN 8000NE WIND THR05 /////KT WIND THR23 /////KT A2950 BLU

Decode

TAF

Not found

Departure Runways

ID Width Length Bearing (true) Bearing (mag) Surface Threshold Offset Overrun Length
05 144 ft / 44 m 8,505 ft / 2,592 m 48.12° 44.86° Asphalt 0 ft / 0 m 845 ft / 258 m
23 144 ft / 44 m 8,505 ft / 2,592 m 228.14° 224.88° Asphalt 0 ft / 0 m 919 ft / 280 m

LIPQ

Details ICAO LIPQ (TRS)
Name Ronchi Dei Legionari
Region Italy
Timezone Europe/Rome (UTC+1.0)
Stats Elevation 37 ft / 11 m (AMSL)
Location 45.827857° 13.466663°
Runways 1
Magnetic Variation 3.431° E

METAR

LIPQ 150650Z 36004KT 8000 SCT025 BKN060 08/07 Q0999

Decode

TAF

TAF LIPQ 150500Z 1506/1606 VRB06KT 8000 BKN040 TEMPO 1515/1524 4000 SHRA

Decode

Destination Runways

ID Width Length Bearing (true) Bearing (mag) Surface Threshold Offset Overrun Length
09 148 ft / 45 m 9,819 ft / 2,993 m 90.42° 86.99° Asphalt 823 ft / 251 m 0 ft / 0 m
27 148 ft / 45 m 9,819 ft / 2,993 m 270.44° 267.01° Asphalt 10 ft / 3 m 190 ft / 58 m

Approach Navaids

Runway Type Ident Frequency Range Bearing (true) Bearing (mag) Slope Elevation
09 Localiser RNC 110.75 MHz 18 nm / 33 km 90.43° 87.00° - 43 ft / 13 m (AMSL)
09 Glidescope RNC 110.75 MHz 10 nm / 19 km 90.43° 87.00° 3.00° 82 ft / 25 m (AMSL)
09 DME RNC 110.75 MHz 18 nm / 33 km - - - 53 ft / 16 m (AMSL)

Popular Alternatives